CheckWX is a tool to help pilots better visualize weather data.  It is not intended as a substitute for an official pre-flight weather briefing.

23:33:41 UTC

LJMB TAF
Maribor Airport
Slovenia
TAF LJMB 182000Z 1821/1921 20005KT CAVOK BECMG 1907/1909 20010KT FEW040 TEMPO 1910/1921 21015G25KT

Oct-18@
21:00 UTC

Oct-18 @ 21:00 UTC

Oct-19@
07:00 UTC

Oct-19 @ 07:00 UTC

TAF LJMB 182000Z 1821/1921 20005KT CAVOK
Wind
  • 200° at 5 KTS
Conditions
No significant weather
Cloud Levels
  • No significant clouds

Oct-19@
07:00 UTC

Oct-19 @ 07:00 UTC

Oct-19@
21:00 UTC

Oct-19 @ 21:00 UTC

BECMG 1907/1909 20010KT FEW040

Becoming

Becoming Conditions expected by Sat, Oct 19, 2019 @ 09:00 UTC

Wind
  • 200° at 10 KTS
Conditions
No significant weather
Cloud Levels
  • Few at 4,000' AGL

Oct-19@
10:00 UTC

Oct-19 @ 10:00 UTC

Oct-19@
21:00 UTC

Oct-19 @ 21:00 UTC

TEMPO 1910/1921 21015G25KT

Temporary

Temporary Changes expected for less than half the time period

Wind
  • 210° at 15 KTS
  • {Gusting to 25 KTS